sensor_id;sensor_type;location;lat;lon;timestamp;temperature;humidity
13409;DHT22;6775;49.574;11.170;2023-02-18T00:01:41;10.80;99.90
13409;DHT22;6775;49.574;11.170;2023-02-18T00:04:09;10.80;99.90
13409;DHT22;6775;49.574;11.170;2023-02-18T00:06:37;10.80;99.90
13409;DHT22;6775;49.574;11.170;2023-02-18T00:09:05;10.80;99.90
13409;DHT22;6775;49.574;11.170;2023-02-18T00:11:35;10.80;99.90
13409;DHT22;6775;49.574;11.170;2023-02-18T00:14:06;10.80;99.90
13409;DHT22;6775;49.574;11.170;2023-02-18T00:16:34;10.80;99.90
13409;DHT22;6775;49.574;11.170;2023-02-18T00:19:05;10.80;99.90
13409;DHT22;6775;49.574;11.170;2023-02-18T00:21:34;10.80;99.90
13409;DHT22;6775;49.574;11.170;2023-02-18T00:24:02;10.80;99.90
13409;DHT22;6775;49.574;11.170;2023-02-18T00:26:30;10.80;99.90
13409;DHT22;6775;49.574;11.170;2023-02-18T00:28:58;10.80;99.90
13409;DHT22;6775;49.574;11.170;2023-02-18T00:31:28;10.80;99.90
13409;DHT22;6775;49.574;11.170;2023-02-18T00:33:57;10.80;99.90
13409;DHT22;6775;49.574;11.170;2023-02-18T00:36:27;10.80;99.90
13409;DHT22;6775;49.574;11.170;2023-02-18T00:38:57;10.80;99.90
13409;DHT22;6775;49.574;11.170;2023-02-18T00:41:27;10.80;99.90
13409;DHT22;6775;49.574;11.170;2023-02-18T00:43:55;10.80;99.90
13409;DHT22;6775;49.574;11.170;2023-02-18T00:46:24;10.80;99.90
13409;DHT22;6775;49.574;11.170;2023-02-18T00:48:52;10.80;99.90
13409;DHT22;6775;49.574;11.170;2023-02-18T00:51:22;10.80;99.90
13409;DHT22;6775;49.574;11.170;2023-02-18T00:53:52;10.80;99.90
13409;DHT22;6775;49.574;11.170;2023-02-18T00:56:20;10.80;99.90
13409;DHT22;6775;49.574;11.170;2023-02-18T00:58:48;10.80;99.90
13409;DHT22;6775;49.574;11.170;2023-02-18T01:01:18;10.80;99.90
13409;DHT22;6775;49.574;11.170;2023-02-18T01:03:46;10.80;99.90
13409;DHT22;6775;49.574;11.170;2023-02-18T01:06:14;10.80;99.90
13409;DHT22;6775;49.574;11.170;2023-02-18T01:08:42;10.80;99.90
13409;DHT22;6775;49.574;11.170;2023-02-18T01:11:12;10.80;99.90
13409;DHT22;6775;49.574;11.170;2023-02-18T01:13:41;10.80;99.90
13409;DHT22;6775;49.574;11.170;2023-02-18T01:16:09;10.80;99.90
13409;DHT22;6775;49.574;11.170;2023-02-18T01:18:38;10.80;99.90
13409;DHT22;6775;49.574;11.170;2023-02-18T01:21:07;10.80;99.90
13409;DHT22;6775;49.574;11.170;2023-02-18T01:23:36;10.80;99.90
13409;DHT22;6775;49.574;11.170;2023-02-18T01:26:04;10.70;99.90
13409;DHT22;6775;49.574;11.170;2023-02-18T01:28:34;10.70;99.90
13409;DHT22;6775;49.574;11.170;2023-02-18T01:31:04;10.70;99.90
13409;DHT22;6775;49.574;11.170;2023-02-18T01:33:33;10.70;99.90
13409;DHT22;6775;49.574;11.170;2023-02-18T01:36:01;10.70;99.90
13409;DHT22;6775;49.574;11.170;2023-02-18T01:38:29;10.70;99.90
13409;DHT22;6775;49.574;11.170;2023-02-18T01:40:58;10.70;99.90
13409;DHT22;6775;49.574;11.170;2023-02-18T01:43:26;10.70;99.90
13409;DHT22;6775;49.574;11.170;2023-02-18T01:46:05;10.70;99.90
13409;DHT22;6775;49.574;11.170;2023-02-18T01:48:36;10.70;99.90
13409;DHT22;6775;49.574;11.170;2023-02-18T01:51:09;10.70;99.90
13409;DHT22;6775;49.574;11.170;2023-02-18T01:53:42;10.70;99.90
13409;DHT22;6775;49.574;11.170;2023-02-18T01:56:15;10.70;99.90
13409;DHT22;6775;49.574;11.170;2023-02-18T01:58:44;10.70;99.90
13409;DHT22;6775;49.574;11.170;2023-02-18T02:01:14;10.70;99.90
13409;DHT22;6775;49.574;11.170;2023-02-18T02:03:42;10.70;99.90
13409;DHT22;6775;49.574;11.170;2023-02-18T02:06:15;10.70;99.90
13409;DHT22;6775;49.574;11.170;2023-02-18T02:08:44;10.70;99.90
13409;DHT22;6775;49.574;11.170;2023-02-18T02:11:23;10.70;99.90
13409;DHT22;6775;49.574;11.170;2023-02-18T02:14:10;10.60;99.90
13409;DHT22;6775;49.574;11.170;2023-02-18T02:16:44;10.60;99.90
13409;DHT22;6775;49.574;11.170;2023-02-18T02:22:41;10.50;99.90
13409;DHT22;6775;49.574;11.170;2023-02-18T02:25:23;10.50;99.90
13409;DHT22;6775;49.574;11.170;2023-02-18T02:28:13;10.50;99.90
13409;DHT22;6775;49.574;11.170;2023-02-18T02:31:07;10.50;99.90
13409;DHT22;6775;49.574;11.170;2023-02-18T02:33:53;10.50;99.90
13409;DHT22;6775;49.574;11.170;2023-02-18T02:36:30;10.40;99.90
13409;DHT22;6775;49.574;11.170;2023-02-18T02:39:05;10.40;99.90
13409;DHT22;6775;49.574;11.170;2023-02-18T02:41:43;10.40;99.90
13409;DHT22;6775;49.574;11.170;2023-02-18T02:44:19;10.30;99.90
13409;DHT22;6775;49.574;11.170;2023-02-18T02:46:51;10.30;99.90
13409;DHT22;6775;49.574;11.170;2023-02-18T02:49:31;10.30;99.90
13409;DHT22;6775;49.574;11.170;2023-02-18T02:52:04;10.30;99.90
13409;DHT22;6775;49.574;11.170;2023-02-18T02:54:34;10.30;99.90
13409;DHT22;6775;49.574;11.170;2023-02-18T02:57:08;10.20;99.90
13409;DHT22;6775;49.574;11.170;2023-02-18T02:59:41;10.20;99.90
13409;DHT22;6775;49.574;11.170;2023-02-18T03:02:21;10.20;99.90
13409;DHT22;6775;49.574;11.170;2023-02-18T03:05:01;10.20;99.90
13409;DHT22;6775;49.574;11.170;2023-02-18T03:07:45;10.20;99.90
13409;DHT22;6775;49.574;11.170;2023-02-18T03:10:25;10.20;99.90
13409;DHT22;6775;49.574;11.170;2023-02-18T03:13:03;10.10;99.90
13409;DHT22;6775;49.574;11.170;2023-02-18T03:15:38;10.10;99.90
13409;DHT22;6775;49.574;11.170;2023-02-18T03:18:16;10.10;99.90
13409;DHT22;6775;49.574;11.170;2023-02-18T03:20:51;10.10;99.90
13409;DHT22;6775;49.574;11.170;2023-02-18T03:23:24;10.20;99.90
13409;DHT22;6775;49.574;11.170;2023-02-18T03:25:55;10.10;99.90
13409;DHT22;6775;49.574;11.170;2023-02-18T03:28:26;10.10;99.90
13409;DHT22;6775;49.574;11.170;2023-02-18T03:31:00;10.10;99.90
13409;DHT22;6775;49.574;11.170;2023-02-18T03:33:32;10.10;99.90
13409;DHT22;6775;49.574;11.170;2023-02-18T03:36:02;10.10;99.90
13409;DHT22;6775;49.574;11.170;2023-02-18T03:38:34;10.10;99.90
13409;DHT22;6775;49.574;11.170;2023-02-18T03:41:03;10.10;99.90
13409;DHT22;6775;49.574;11.170;2023-02-18T03:43:31;10.10;99.90
13409;DHT22;6775;49.574;11.170;2023-02-18T03:46:00;10.20;99.90
13409;DHT22;6775;49.574;11.170;2023-02-18T03:48:29;10.20;99.90
13409;DHT22;6775;49.574;11.170;2023-02-18T03:50:56;10.20;99.90
13409;DHT22;6775;49.574;11.170;2023-02-18T03:53:24;10.10;99.90
13409;DHT22;6775;49.574;11.170;2023-02-18T03:55:53;10.20;99.90
13409;DHT22;6775;49.574;11.170;2023-02-18T03:58:21;10.10;99.90
13409;DHT22;6775;49.574;11.170;2023-02-18T04:00:49;10.20;99.90
13409;DHT22;6775;49.574;11.170;2023-02-18T04:03:17;10.20;99.90
13409;DHT22;6775;49.574;11.170;2023-02-18T04:05:45;10.10;99.90
13409;DHT22;6775;49.574;11.170;2023-02-18T04:08:13;10.20;99.90
13409;DHT22;6775;49.574;11.170;2023-02-18T04:10:41;10.20;99.90
13409;DHT22;6775;49.574;11.170;2023-02-18T04:13:10;10.20;99.90
13409;DHT22;6775;49.574;11.170;2023-02-18T04:15:38;10.20;99.90
13409;DHT22;6775;49.574;11.170;2023-02-18T04:18:06;10.20;99.90
13409;DHT22;6775;49.574;11.170;2023-02-18T04:20:33;10.20;99.90
13409;DHT22;6775;49.574;11.170;2023-02-18T04:23:03;10.20;99.90
13409;DHT22;6775;49.574;11.170;2023-02-18T04:25:31;10.20;99.90
13409;DHT22;6775;49.574;11.170;2023-02-18T04:27:59;10.10;99.90
13409;DHT22;6775;49.574;11.170;2023-02-18T04:30:28;10.20;99.90
13409;DHT22;6775;49.574;11.170;2023-02-18T04:32:56;10.20;99.90
13409;DHT22;6775;49.574;11.170;2023-02-18T04:35:24;10.20;99.90
13409;DHT22;6775;49.574;11.170;2023-02-18T04:37:52;10.10;99.90
13409;DHT22;6775;49.574;11.170;2023-02-18T04:40:20;10.10;99.90
13409;DHT22;6775;49.574;11.170;2023-02-18T04:42:48;10.10;99.90
13409;DHT22;6775;49.574;11.170;2023-02-18T04:45:15;10.10;99.90
13409;DHT22;6775;49.574;11.170;2023-02-18T04:47:45;10.10;99.90
13409;DHT22;6775;49.574;11.170;2023-02-18T04:50:12;10.10;99.90
13409;DHT22;6775;49.574;11.170;2023-02-18T04:52:40;10.10;99.90
13409;DHT22;6775;49.574;11.170;2023-02-18T04:55:09;10.10;99.90
13409;DHT22;6775;49.574;11.170;2023-02-18T04:57:37;10.10;99.90
13409;DHT22;6775;49.574;11.170;2023-02-18T05:00:06;10.10;99.90
13409;DHT22;6775;49.574;11.170;2023-02-18T05:02:35;10.10;99.90
13409;DHT22;6775;49.574;11.170;2023-02-18T05:05:04;10.10;99.90
13409;DHT22;6775;49.574;11.170;2023-02-18T05:07:33;10.00;99.90
13409;DHT22;6775;49.574;11.170;2023-02-18T05:10:01;10.00;99.90
13409;DHT22;6775;49.574;11.170;2023-02-18T05:12:29;10.10;99.90
13409;DHT22;6775;49.574;11.170;2023-02-18T05:14:57;10.10;99.90
13409;DHT22;6775;49.574;11.170;2023-02-18T05:17:25;10.00;99.90
13409;DHT22;6775;49.574;11.170;2023-02-18T05:19:53;10.10;99.90
13409;DHT22;6775;49.574;11.170;2023-02-18T05:22:22;10.10;99.90
13409;DHT22;6775;49.574;11.170;2023-02-18T05:24:50;10.10;99.90
13409;DHT22;6775;49.574;11.170;2023-02-18T05:27:18;10.00;99.90
13409;DHT22;6775;49.574;11.170;2023-02-18T05:29:45;10.00;99.90
13409;DHT22;6775;49.574;11.170;2023-02-18T05:32:13;10.00;99.90
13409;DHT22;6775;49.574;11.170;2023-02-18T05:34:41;10.00;99.90
13409;DHT22;6775;49.574;11.170;2023-02-18T05:37:09;10.00;99.90
13409;DHT22;6775;49.574;11.170;2023-02-18T05:39:40;10.00;99.90
13409;DHT22;6775;49.574;11.170;2023-02-18T05:42:08;10.00;99.90
13409;DHT22;6775;49.574;11.170;2023-02-18T05:44:36;10.00;99.90
13409;DHT22;6775;49.574;11.170;2023-02-18T05:47:06;10.00;99.90
13409;DHT22;6775;49.574;11.170;2023-02-18T05:49:38;10.00;99.90
13409;DHT22;6775;49.574;11.170;2023-02-18T05:52:07;10.00;99.90
13409;DHT22;6775;49.574;11.170;2023-02-18T05:54:36;10.00;99.90
13409;DHT22;6775;49.574;11.170;2023-02-18T05:57:05;10.00;99.90
13409;DHT22;6775;49.574;11.170;2023-02-18T05:59:33;10.00;99.90
13409;DHT22;6775;49.574;11.170;2023-02-18T06:02:01;10.00;99.90
13409;DHT22;6775;49.574;11.170;2023-02-18T06:04:29;10.00;99.90
13409;DHT22;6775;49.574;11.170;2023-02-18T06:06:57;10.00;99.90
13409;DHT22;6775;49.574;11.170;2023-02-18T06:09:25;9.90;99.90
13409;DHT22;6775;49.574;11.170;2023-02-18T06:11:53;9.90;99.90
13409;DHT22;6775;49.574;11.170;2023-02-18T06:14:22;9.90;99.90
13409;DHT22;6775;49.574;11.170;2023-02-18T06:16:50;9.90;99.90
13409;DHT22;6775;49.574;11.170;2023-02-18T06:19:17;9.90;99.90
13409;DHT22;6775;49.574;11.170;2023-02-18T06:21:45;9.90;99.90
13409;DHT22;6775;49.574;11.170;2023-02-18T06:24:13;9.90;99.90
13409;DHT22;6775;49.574;11.170;2023-02-18T06:26:41;9.90;99.90
13409;DHT22;6775;49.574;11.170;2023-02-18T06:29:09;9.90;99.90
13409;DHT22;6775;49.574;11.170;2023-02-18T06:31:38;9.90;99.90
13409;DHT22;6775;49.574;11.170;2023-02-18T06:34:06;9.90;99.90
13409;DHT22;6775;49.574;11.170;2023-02-18T06:36:34;9.90;99.90
13409;DHT22;6775;49.574;11.170;2023-02-18T06:39:03;9.90;99.90
13409;DHT22;6775;49.574;11.170;2023-02-18T06:41:31;9.90;99.90
13409;DHT22;6775;49.574;11.170;2023-02-18T06:43:59;9.90;99.90
13409;DHT22;6775;49.574;11.170;2023-02-18T06:46:27;9.90;99.90
13409;DHT22;6775;49.574;11.170;2023-02-18T06:48:56;9.90;99.90
13409;DHT22;6775;49.574;11.170;2023-02-18T06:51:24;9.90;99.90
13409;DHT22;6775;49.574;11.170;2023-02-18T06:53:52;9.90;99.90
13409;DHT22;6775;49.574;11.170;2023-02-18T06:56:20;9.90;99.90
13409;DHT22;6775;49.574;11.170;2023-02-18T06:58:48;9.90;99.90
13409;DHT22;6775;49.574;11.170;2023-02-18T07:01:15;9.90;99.90
13409;DHT22;6775;49.574;11.170;2023-02-18T07:03:43;9.90;99.90
13409;DHT22;6775;49.574;11.170;2023-02-18T07:06:16;9.90;99.90
13409;DHT22;6775;49.574;11.170;2023-02-18T07:08:43;9.90;99.90
13409;DHT22;6775;49.574;11.170;2023-02-18T07:11:11;9.90;99.90
13409;DHT22;6775;49.574;11.170;2023-02-18T07:13:39;9.90;99.90
13409;DHT22;6775;49.574;11.170;2023-02-18T07:16:07;9.90;99.90
13409;DHT22;6775;49.574;11.170;2023-02-18T07:18:35;9.90;99.90
13409;DHT22;6775;49.574;11.170;2023-02-18T07:21:03;9.90;99.90
13409;DHT22;6775;49.574;11.170;2023-02-18T07:23:32;9.90;99.90
13409;DHT22;6775;49.574;11.170;2023-02-18T07:26:05;10.00;99.90
13409;DHT22;6775;49.574;11.170;2023-02-18T07:28:33;9.90;99.90
13409;DHT22;6775;49.574;11.170;2023-02-18T07:31:02;10.00;99.90
13409;DHT22;6775;49.574;11.170;2023-02-18T07:33:30;10.00;99.90
13409;DHT22;6775;49.574;11.170;2023-02-18T07:35:59;10.00;99.90
13409;DHT22;6775;49.574;11.170;2023-02-18T07:38:28;10.00;99.90
13409;DHT22;6775;49.574;11.170;2023-02-18T07:40:58;10.00;99.90
13409;DHT22;6775;49.574;11.170;2023-02-18T07:43:26;10.00;99.90
13409;DHT22;6775;49.574;11.170;2023-02-18T07:45:53;10.00;99.90
13409;DHT22;6775;49.574;11.170;2023-02-18T07:48:21;10.00;99.90
13409;DHT22;6775;49.574;11.170;2023-02-18T07:50:49;10.00;99.90
13409;DHT22;6775;49.574;11.170;2023-02-18T07:53:17;10.00;99.90
13409;DHT22;6775;49.574;11.170;2023-02-18T07:55:45;10.00;99.90
13409;DHT22;6775;49.574;11.170;2023-02-18T07:58:18;10.00;99.90
13409;DHT22;6775;49.574;11.170;2023-02-18T08:00:47;10.00;99.90
13409;DHT22;6775;49.574;11.170;2023-02-18T08:03:16;10.00;99.90
13409;DHT22;6775;49.574;11.170;2023-02-18T08:05:46;10.00;99.90
13409;DHT22;6775;49.574;11.170;2023-02-18T08:08:16;10.00;99.90
13409;DHT22;6775;49.574;11.170;2023-02-18T08:10:46;10.00;99.90
13409;DHT22;6775;49.574;11.170;2023-02-18T08:13:14;10.10;99.90
13409;DHT22;6775;49.574;11.170;2023-02-18T08:15:43;10.10;99.90
13409;DHT22;6775;49.574;11.170;2023-02-18T08:18:15;10.10;99.90
13409;DHT22;6775;49.574;11.170;2023-02-18T08:20:43;10.20;99.90
13409;DHT22;6775;49.574;11.170;2023-02-18T08:23:13;10.20;99.90
13409;DHT22;6775;49.574;11.170;2023-02-18T08:25:44;10.30;99.90
13409;DHT22;6775;49.574;11.170;2023-02-18T08:28:15;10.40;99.90
13409;DHT22;6775;49.574;11.170;2023-02-18T08:30:45;10.50;99.90
13409;DHT22;6775;49.574;11.170;2023-02-18T08:33:14;10.60;99.90
13409;DHT22;6775;49.574;11.170;2023-02-18T08:35:42;11.00;99.90
13409;DHT22;6775;49.574;11.170;2023-02-18T08:38:10;11.80;99.90
13409;DHT22;6775;49.574;11.170;2023-02-18T08:40:38;13.00;99.90
13409;DHT22;6775;49.574;11.170;2023-02-18T08:43:06;14.40;99.90
13409;DHT22;6775;49.574;11.170;2023-02-18T08:45:35;16.00;99.90
13409;DHT22;6775;49.574;11.170;2023-02-18T08:48:05;17.00;99.90
13409;DHT22;6775;49.574;11.170;2023-02-18T08:50:45;17.50;99.90
13409;DHT22;6775;49.574;11.170;2023-02-18T08:53:13;17.80;99.90
13409;DHT22;6775;49.574;11.170;2023-02-18T08:55:41;17.50;99.90
13409;DHT22;6775;49.574;11.170;2023-02-18T08:58:09;16.60;99.90
13409;DHT22;6775;49.574;11.170;2023-02-18T09:00:38;15.50;99.90
13409;DHT22;6775;49.574;11.170;2023-02-18T09:03:11;15.00;99.90
13409;DHT22;6775;49.574;11.170;2023-02-18T09:05:39;14.80;99.90
13409;DHT22;6775;49.574;11.170;2023-02-18T09:08:07;14.50;99.90
13409;DHT22;6775;49.574;11.170;2023-02-18T09:10:35;14.00;99.90
13409;DHT22;6775;49.574;11.170;2023-02-18T09:13:03;14.20;99.90
13409;DHT22;6775;49.574;11.170;2023-02-18T09:15:31;14.80;99.90
13409;DHT22;6775;49.574;11.170;2023-02-18T09:17:59;15.00;99.90
13409;DHT22;6775;49.574;11.170;2023-02-18T09:20:28;15.00;99.90
13409;DHT22;6775;49.574;11.170;2023-02-18T09:22:56;14.80;99.90
13409;DHT22;6775;49.574;11.170;2023-02-18T09:25:24;14.30;99.90
13409;DHT22;6775;49.574;11.170;2023-02-18T09:27:52;13.90;99.90
13409;DHT22;6775;49.574;11.170;2023-02-18T09:30:20;13.50;99.90
13409;DHT22;6775;49.574;11.170;2023-02-18T09:32:48;13.00;99.90
13409;DHT22;6775;49.574;11.170;2023-02-18T09:35:15;12.70;99.90
13409;DHT22;6775;49.574;11.170;2023-02-18T09:37:45;12.50;99.90
13409;DHT22;6775;49.574;11.170;2023-02-18T09:40:23;12.30;99.90
13409;DHT22;6775;49.574;11.170;2023-02-18T09:42:54;12.10;99.90
13409;DHT22;6775;49.574;11.170;2023-02-18T09:45:23;12.00;99.90
13409;DHT22;6775;49.574;11.170;2023-02-18T09:47:52;12.00;99.90
13409;DHT22;6775;49.574;11.170;2023-02-18T09:50:23;11.90;99.90
13409;DHT22;6775;49.574;11.170;2023-02-18T09:52:52;11.90;99.90
13409;DHT22;6775;49.574;11.170;2023-02-18T09:55:21;11.80;99.90
13409;DHT22;6775;49.574;11.170;2023-02-18T09:57:52;11.80;99.90
13409;DHT22;6775;49.574;11.170;2023-02-18T10:00:24;11.80;99.90
13409;DHT22;6775;49.574;11.170;2023-02-18T10:02:54;11.80;99.90
13409;DHT22;6775;49.574;11.170;2023-02-18T10:05:23;11.80;99.90
13409;DHT22;6775;49.574;11.170;2023-02-18T10:07:57;11.80;99.90
13409;DHT22;6775;49.574;11.170;2023-02-18T10:10:33;11.70;99.90
13409;DHT22;6775;49.574;11.170;2023-02-18T10:13:03;11.70;99.90
13409;DHT22;6775;49.574;11.170;2023-02-18T10:15:31;11.70;99.90
13409;DHT22;6775;49.574;11.170;2023-02-18T10:18:00;11.80;99.90
13409;DHT22;6775;49.574;11.170;2023-02-18T10:20:30;11.80;99.90
13409;DHT22;6775;49.574;11.170;2023-02-18T10:23:00;11.90;99.90
13409;DHT22;6775;49.574;11.170;2023-02-18T10:25:33;11.90;99.90
13409;DHT22;6775;49.574;11.170;2023-02-18T10:28:05;11.90;99.90
13409;DHT22;6775;49.574;11.170;2023-02-18T10:30:38;11.90;99.90
13409;DHT22;6775;49.574;11.170;2023-02-18T10:33:20;11.90;99.90
13409;DHT22;6775;49.574;11.170;2023-02-18T10:35:56;12.00;99.90
13409;DHT22;6775;49.574;11.170;2023-02-18T10:38:35;12.10;99.90
13409;DHT22;6775;49.574;11.170;2023-02-18T10:41:14;12.20;99.90
13409;DHT22;6775;49.574;11.170;2023-02-18T10:43:50;12.30;99.90
13409;DHT22;6775;49.574;11.170;2023-02-18T10:46:29;12.30;99.90
13409;DHT22;6775;49.574;11.170;2023-02-18T10:49:10;12.40;99.90
13409;DHT22;6775;49.574;11.170;2023-02-18T10:51:46;12.40;99.90
13409;DHT22;6775;49.574;11.170;2023-02-18T10:54:16;12.40;99.90
13409;DHT22;6775;49.574;11.170;2023-02-18T10:56:46;12.50;99.90
13409;DHT22;6775;49.574;11.170;2023-02-18T10:59:18;12.60;99.90
13409;DHT22;6775;49.574;11.170;2023-02-18T11:01:54;12.70;99.90
13409;DHT22;6775;49.574;11.170;2023-02-18T11:04:26;12.70;99.90
13409;DHT22;6775;49.574;11.170;2023-02-18T11:06:55;12.80;99.90
13409;DHT22;6775;49.574;11.170;2023-02-18T11:09:32;12.80;99.90
13409;DHT22;6775;49.574;11.170;2023-02-18T11:12:03;12.80;99.90
13409;DHT22;6775;49.574;11.170;2023-02-18T11:14:40;12.90;99.90
13409;DHT22;6775;49.574;11.170;2023-02-18T11:17:16;12.80;99.90
13409;DHT22;6775;49.574;11.170;2023-02-18T11:19:54;12.80;99.90
13409;DHT22;6775;49.574;11.170;2023-02-18T11:22:25;12.70;99.90
13409;DHT22;6775;49.574;11.170;2023-02-18T11:24:57;12.60;99.90
13409;DHT22;6775;49.574;11.170;2023-02-18T11:27:30;12.50;99.90
13409;DHT22;6775;49.574;11.170;2023-02-18T11:30:02;12.50;99.90
13409;DHT22;6775;49.574;11.170;2023-02-18T11:32:33;12.40;99.90
13409;DHT22;6775;49.574;11.170;2023-02-18T11:35:03;12.40;99.90
13409;DHT22;6775;49.574;11.170;2023-02-18T11:37:32;12.40;99.90
13409;DHT22;6775;49.574;11.170;2023-02-18T11:40:02;12.40;99.90
13409;DHT22;6775;49.574;11.170;2023-02-18T11:42:31;12.40;99.90
13409;DHT22;6775;49.574;11.170;2023-02-18T11:44:59;12.50;99.90
13409;DHT22;6775;49.574;11.170;2023-02-18T11:47:33;12.60;99.90
13409;DHT22;6775;49.574;11.170;2023-02-18T11:52:50;12.70;99.90
13409;DHT22;6775;49.574;11.170;2023-02-18T11:55:22;12.70;99.90
13409;DHT22;6775;49.574;11.170;2023-02-18T11:57:55;12.70;99.90
13409;DHT22;6775;49.574;11.170;2023-02-18T12:00:34;12.70;99.90
13409;DHT22;6775;49.574;11.170;2023-02-18T12:03:11;12.70;99.90
13409;DHT22;6775;49.574;11.170;2023-02-18T12:05:41;12.60;99.90
13409;DHT22;6775;49.574;11.170;2023-02-18T12:08:14;12.60;99.90
13409;DHT22;6775;49.574;11.170;2023-02-18T12:10:48;12.70;99.90
13409;DHT22;6775;49.574;11.170;2023-02-18T12:13:22;12.70;99.90
13409;DHT22;6775;49.574;11.170;2023-02-18T12:15:57;12.70;99.90
13409;DHT22;6775;49.574;11.170;2023-02-18T12:18:40;12.60;99.90
13409;DHT22;6775;49.574;11.170;2023-02-18T12:21:26;12.60;99.90
13409;DHT22;6775;49.574;11.170;2023-02-18T12:24:01;12.50;99.90
13409;DHT22;6775;49.574;11.170;2023-02-18T12:26:37;12.50;99.90
13409;DHT22;6775;49.574;11.170;2023-02-18T12:29:26;12.50;99.90
13409;DHT22;6775;49.574;11.170;2023-02-18T12:32:21;12.50;99.90
13409;DHT22;6775;49.574;11.170;2023-02-18T12:35:08;12.40;99.90
13409;DHT22;6775;49.574;11.170;2023-02-18T12:40:39;12.40;99.90
13409;DHT22;6775;49.574;11.170;2023-02-18T12:43:21;12.40;99.90
13409;DHT22;6775;49.574;11.170;2023-02-18T12:46:14;12.40;99.90
13409;DHT22;6775;49.574;11.170;2023-02-18T12:48:59;12.40;99.90
13409;DHT22;6775;49.574;11.170;2023-02-18T12:51:37;12.30;99.90
13409;DHT22;6775;49.574;11.170;2023-02-18T12:54:23;12.30;99.90
13409;DHT22;6775;49.574;11.170;2023-02-18T12:57:22;12.40;99.90
13409;DHT22;6775;49.574;11.170;2023-02-18T13:00:30;12.30;99.90
13409;DHT22;6775;49.574;11.170;2023-02-18T13:03:54;12.30;99.90
13409;DHT22;6775;49.574;11.170;2023-02-18T13:06:40;12.30;99.90
13409;DHT22;6775;49.574;11.170;2023-02-18T13:09:14;12.20;99.90
13409;DHT22;6775;49.574;11.170;2023-02-18T13:11:50;12.20;99.90
13409;DHT22;6775;49.574;11.170;2023-02-18T13:14:22;12.20;99.90
13409;DHT22;6775;49.574;11.170;2023-02-18T13:16:54;12.20;99.90
13409;DHT22;6775;49.574;11.170;2023-02-18T13:19:24;12.20;99.90
13409;DHT22;6775;49.574;11.170;2023-02-18T13:21:57;12.20;99.90
13409;DHT22;6775;49.574;11.170;2023-02-18T13:24:30;12.20;99.90
13409;DHT22;6775;49.574;11.170;2023-02-18T13:27:05;12.20;99.90
13409;DHT22;6775;49.574;11.170;2023-02-18T13:29:41;12.20;99.90
13409;DHT22;6775;49.574;11.170;2023-02-18T13:32:19;12.20;99.90
13409;DHT22;6775;49.574;11.170;2023-02-18T13:34:52;12.20;99.90
13409;DHT22;6775;49.574;11.170;2023-02-18T13:37:32;12.30;99.90
13409;DHT22;6775;49.574;11.170;2023-02-18T13:40:03;12.30;99.90
13409;DHT22;6775;49.574;11.170;2023-02-18T13:42:36;12.30;99.90
13409;DHT22;6775;49.574;11.170;2023-02-18T13:45:23;12.20;99.90
13409;DHT22;6775;49.574;11.170;2023-02-18T13:47:53;12.30;99.90
13409;DHT22;6775;49.574;11.170;2023-02-18T13:50:27;12.20;99.90
13409;DHT22;6775;49.574;11.170;2023-02-18T13:53:11;12.20;99.90
13409;DHT22;6775;49.574;11.170;2023-02-18T13:55:41;12.20;99.90
13409;DHT22;6775;49.574;11.170;2023-02-18T13:58:15;12.30;99.90
13409;DHT22;6775;49.574;11.170;2023-02-18T14:00:49;12.20;99.90
13409;DHT22;6775;49.574;11.170;2023-02-18T14:03:36;12.20;99.90
13409;DHT22;6775;49.574;11.170;2023-02-18T14:06:18;12.20;99.90
13409;DHT22;6775;49.574;11.170;2023-02-18T14:08:47;12.20;99.90
13409;DHT22;6775;49.574;11.170;2023-02-18T14:11:38;12.20;99.90
13409;DHT22;6775;49.574;11.170;2023-02-18T14:14:33;12.20;99.90
13409;DHT22;6775;49.574;11.170;2023-02-18T14:20:32;12.20;99.90
13409;DHT22;6775;49.574;11.170;2023-02-18T14:23:42;12.20;99.90
13409;DHT22;6775;49.574;11.170;2023-02-18T14:26:22;12.10;99.90
13409;DHT22;6775;49.574;11.170;2023-02-18T14:28:55;12.10;99.90
13409;DHT22;6775;49.574;11.170;2023-02-18T14:31:33;12.10;99.90
13409;DHT22;6775;49.574;11.170;2023-02-18T14:40:24;12.00;99.90
13409;DHT22;6775;49.574;11.170;2023-02-18T14:43:00;12.00;99.90
13409;DHT22;6775;49.574;11.170;2023-02-18T14:45:52;12.00;99.90
13409;DHT22;6775;49.574;11.170;2023-02-18T14:51:22;11.90;99.90
13409;DHT22;6775;49.574;11.170;2023-02-18T14:53:53;11.90;99.90
13409;DHT22;6775;49.574;11.170;2023-02-18T14:56:21;11.80;99.90
13409;DHT22;6775;49.574;11.170;2023-02-18T14:58:52;11.70;99.90
13409;DHT22;6775;49.574;11.170;2023-02-18T15:01:26;11.70;99.90
13409;DHT22;6775;49.574;11.170;2023-02-18T15:03:55;11.70;99.90
13409;DHT22;6775;49.574;11.170;2023-02-18T15:06:27;11.60;99.90
13409;DHT22;6775;49.574;11.170;2023-02-18T15:08:57;11.60;99.90
13409;DHT22;6775;49.574;11.170;2023-02-18T15:11:34;11.50;99.90
13409;DHT22;6775;49.574;11.170;2023-02-18T15:14:07;11.50;99.90
13409;DHT22;6775;49.574;11.170;2023-02-18T15:16:36;11.50;99.90
13409;DHT22;6775;49.574;11.170;2023-02-18T15:19:09;11.50;99.90
13409;DHT22;6775;49.574;11.170;2023-02-18T15:21:41;11.50;99.90
13409;DHT22;6775;49.574;11.170;2023-02-18T15:24:24;11.50;99.90
13409;DHT22;6775;49.574;11.170;2023-02-18T15:26:55;11.50;99.90
13409;DHT22;6775;49.574;11.170;2023-02-18T15:29:25;11.50;99.90
13409;DHT22;6775;49.574;11.170;2023-02-18T15:31:55;11.40;99.90
13409;DHT22;6775;49.574;11.170;2023-02-18T15:34:34;11.40;99.90
13409;DHT22;6775;49.574;11.170;2023-02-18T15:37:04;11.40;99.90
13409;DHT22;6775;49.574;11.170;2023-02-18T15:39:34;11.40;99.90
13409;DHT22;6775;49.574;11.170;2023-02-18T15:42:07;11.40;99.90
13409;DHT22;6775;49.574;11.170;2023-02-18T15:44:36;11.40;99.90
13409;DHT22;6775;49.574;11.170;2023-02-18T15:47:06;11.40;99.90
13409;DHT22;6775;49.574;11.170;2023-02-18T15:49:37;11.40;99.90
13409;DHT22;6775;49.574;11.170;2023-02-18T15:52:06;11.40;99.90
13409;DHT22;6775;49.574;11.170;2023-02-18T15:54:38;11.40;99.90
13409;DHT22;6775;49.574;11.170;2023-02-18T15:57:11;11.30;99.90
13409;DHT22;6775;49.574;11.170;2023-02-18T15:59:44;11.30;99.90
13409;DHT22;6775;49.574;11.170;2023-02-18T16:02:17;11.30;99.90
13409;DHT22;6775;49.574;11.170;2023-02-18T16:04:50;11.30;99.90
13409;DHT22;6775;49.574;11.170;2023-02-18T16:07:22;11.30;99.90
13409;DHT22;6775;49.574;11.170;2023-02-18T16:10:06;11.20;99.90
13409;DHT22;6775;49.574;11.170;2023-02-18T16:12:36;11.20;99.90
13409;DHT22;6775;49.574;11.170;2023-02-18T16:15:08;11.20;99.90
13409;DHT22;6775;49.574;11.170;2023-02-18T16:17:42;11.20;99.90
13409;DHT22;6775;49.574;11.170;2023-02-18T16:20:17;11.10;99.90
13409;DHT22;6775;49.574;11.170;2023-02-18T16:22:48;11.10;99.90
13409;DHT22;6775;49.574;11.170;2023-02-18T16:25:22;11.10;99.90